Canadian, Texas
Current Conditions -  °F | °C
As of 8:15 PM on Thursday 18 Dec 2014 (Local Time) from KHHF Reporting Station
Drizzle Drizzle  
Wind Chill: 34°   Ceiling: 700
Heat Index: 39°   Visibility: 4mi
Dew Point: 38°   Wind: 7mph
Humidity: 97%   Direction: 100°E
Pressure: 30.16"   Gusts: NA
Location:  35.91°N, 100.38°W
Report Text: KHHF 190215Z AUTO 10006KT 4SM -DZ OVC007 04/04 A3016 RMK AO2 T00400036
Loading
Personal Weather Stations






























Interactive Weather Map New forecast layout! Learn more

10-Day Weather Forecast

Advertisements
Track Severe Weather on mobile